Terminal Aerodrome Forecast
Issued by NWS

Home | Current Version | Previous Version | Text Only | Print | Product List | Glossary On
Versions: 1 2 3 4 5 6 7 8 9 10 11 12 13 14 15 16 17 18 19
822
FTUS45 KFGZ 280541
TAFSEZ
TAF
KSEZ 280541Z 2806/2906 VRB05KT P6SM SCT090 PROB30 2819/2824 5SM
      -TSRA BKN060CB
     FM290200 VRB02KT P6SM FEW090=

USA.gov is the U.S. government's official web portal to all federal, state and local government web resources and services.